sensor_id;sensor_type;location;lat;lon;timestamp;P1;durP1;ratioP1;P2;durP2;ratioP2
54157;SDS011;40065;49.894;10.358;2023-06-14T00:03:24;6.78;;;4.13;;
54157;SDS011;40065;49.894;10.358;2023-06-14T00:08:27;6.93;;;4.13;;
54157;SDS011;40065;49.894;10.358;2023-06-14T00:13:29;6.05;;;3.67;;
54157;SDS011;40065;49.894;10.358;2023-06-14T00:18:31;7.55;;;3.85;;
54157;SDS011;40065;49.894;10.358;2023-06-14T00:23:33;8.52;;;4.38;;
54157;SDS011;40065;49.894;10.358;2023-06-14T00:28:34;9.60;;;3.60;;
54157;SDS011;40065;49.894;10.358;2023-06-14T00:33:36;5.70;;;3.85;;
54157;SDS011;40065;49.894;10.358;2023-06-14T00:38:38;9.98;;;4.05;;
54157;SDS011;40065;49.894;10.358;2023-06-14T00:43:42;8.73;;;3.67;;
54157;SDS011;40065;49.894;10.358;2023-06-14T00:48:44;8.52;;;3.58;;
54157;SDS011;40065;49.894;10.358;2023-06-14T00:53:46;5.53;;;3.53;;
54157;SDS011;40065;49.894;10.358;2023-06-14T00:58:50;6.85;;;3.75;;
54157;SDS011;40065;49.894;10.358;2023-06-14T01:03:53;6.70;;;3.78;;
54157;SDS011;40065;49.894;10.358;2023-06-14T01:14:15;5.95;;;3.70;;
54157;SDS011;40065;49.894;10.358;2023-06-14T01:24:23;6.10;;;3.70;;
54157;SDS011;40065;49.894;10.358;2023-06-14T01:29:27;6.53;;;3.67;;
54157;SDS011;40065;49.894;10.358;2023-06-14T01:34:33;10.40;;;5.75;;
54157;SDS011;40065;49.894;10.358;2023-06-14T01:39:35;7.88;;;4.20;;
54157;SDS011;40065;49.894;10.358;2023-06-14T01:44:37;6.43;;;3.95;;
54157;SDS011;40065;49.894;10.358;2023-06-14T01:49:40;9.18;;;4.15;;
54157;SDS011;40065;49.894;10.358;2023-06-14T01:54:42;4.93;;;3.60;;
54157;SDS011;40065;49.894;10.358;2023-06-14T01:59:44;7.82;;;3.75;;
54157;SDS011;40065;49.894;10.358;2023-06-14T02:04:49;5.13;;;3.60;;
54157;SDS011;40065;49.894;10.358;2023-06-14T02:09:51;3.65;;;2.95;;
54157;SDS011;40065;49.894;10.358;2023-06-14T02:14:53;6.40;;;3.25;;
54157;SDS011;40065;49.894;10.358;2023-06-14T02:19:57;5.00;;;3.15;;
54157;SDS011;40065;49.894;10.358;2023-06-14T02:24:59;5.70;;;3.15;;
54157;SDS011;40065;49.894;10.358;2023-06-14T02:30:03;7.55;;;3.78;;
54157;SDS011;40065;49.894;10.358;2023-06-14T02:35:07;6.53;;;3.57;;
54157;SDS011;40065;49.894;10.358;2023-06-14T02:40:09;7.28;;;3.67;;
54157;SDS011;40065;49.894;10.358;2023-06-14T02:45:12;7.63;;;3.97;;
54157;SDS011;40065;49.894;10.358;2023-06-14T02:50:14;5.90;;;4.05;;
54157;SDS011;40065;49.894;10.358;2023-06-14T02:55:17;6.93;;;3.80;;
54157;SDS011;40065;49.894;10.358;2023-06-14T03:00:20;9.38;;;4.10;;
54157;SDS011;40065;49.894;10.358;2023-06-14T03:05:22;5.47;;;4.15;;
54157;SDS011;40065;49.894;10.358;2023-06-14T03:10:25;6.43;;;4.18;;
54157;SDS011;40065;49.894;10.358;2023-06-14T03:15:31;9.20;;;4.35;;
54157;SDS011;40065;49.894;10.358;2023-06-14T03:20:35;8.13;;;4.53;;
54157;SDS011;40065;49.894;10.358;2023-06-14T03:25:37;6.88;;;4.35;;
54157;SDS011;40065;49.894;10.358;2023-06-14T03:30:40;6.95;;;4.68;;
54157;SDS011;40065;49.894;10.358;2023-06-14T03:35:43;4.57;;;3.50;;
54157;SDS011;40065;49.894;10.358;2023-06-14T03:40:45;9.50;;;4.63;;
54157;SDS011;40065;49.894;10.358;2023-06-14T03:45:48;5.63;;;4.60;;
54157;SDS011;40065;49.894;10.358;2023-06-14T03:50:51;6.95;;;4.40;;
54157;SDS011;40065;49.894;10.358;2023-06-14T03:55:54;5.43;;;3.80;;
54157;SDS011;40065;49.894;10.358;2023-06-14T04:01:01;7.20;;;4.43;;
54157;SDS011;40065;49.894;10.358;2023-06-14T04:06:05;10.07;;;4.70;;
54157;SDS011;40065;49.894;10.358;2023-06-14T04:11:07;9.20;;;4.38;;
54157;SDS011;40065;49.894;10.358;2023-06-14T04:16:09;6.32;;;4.10;;
54157;SDS011;40065;49.894;10.358;2023-06-14T04:21:12;8.77;;;4.03;;
54157;SDS011;40065;49.894;10.358;2023-06-14T04:26:14;5.90;;;3.97;;
54157;SDS011;40065;49.894;10.358;2023-06-14T04:31:19;6.22;;;3.72;;
54157;SDS011;40065;49.894;10.358;2023-06-14T04:36:23;4.80;;;3.35;;
54157;SDS011;40065;49.894;10.358;2023-06-14T04:41:25;6.55;;;4.20;;
54157;SDS011;40065;49.894;10.358;2023-06-14T04:46:31;12.00;;;4.57;;
54157;SDS011;40065;49.894;10.358;2023-06-14T04:51:33;8.85;;;4.25;;
54157;SDS011;40065;49.894;10.358;2023-06-14T04:56:36;8.32;;;4.20;;
54157;SDS011;40065;49.894;10.358;2023-06-14T05:01:39;7.70;;;4.30;;
54157;SDS011;40065;49.894;10.358;2023-06-14T05:06:42;11.32;;;4.40;;
54157;SDS011;40065;49.894;10.358;2023-06-14T05:11:49;9.45;;;4.15;;
54157;SDS011;40065;49.894;10.358;2023-06-14T05:16:52;6.10;;;3.92;;
54157;SDS011;40065;49.894;10.358;2023-06-14T05:21:54;9.60;;;4.68;;
54157;SDS011;40065;49.894;10.358;2023-06-14T05:26:56;6.63;;;4.10;;
54157;SDS011;40065;49.894;10.358;2023-06-14T05:31:58;9.63;;;4.30;;
54157;SDS011;40065;49.894;10.358;2023-06-14T05:37:00;10.13;;;6.07;;
54157;SDS011;40065;49.894;10.358;2023-06-14T05:42:02;7.68;;;4.90;;
54157;SDS011;40065;49.894;10.358;2023-06-14T05:47:04;6.43;;;4.32;;
54157;SDS011;40065;49.894;10.358;2023-06-14T05:52:06;5.35;;;3.92;;
54157;SDS011;40065;49.894;10.358;2023-06-14T05:57:09;5.90;;;3.97;;
54157;SDS011;40065;49.894;10.358;2023-06-14T06:02:12;7.00;;;4.03;;
54157;SDS011;40065;49.894;10.358;2023-06-14T06:07:14;7.28;;;4.57;;
54157;SDS011;40065;49.894;10.358;2023-06-14T06:12:15;6.85;;;4.15;;
54157;SDS011;40065;49.894;10.358;2023-06-14T06:17:17;7.78;;;4.72;;
54157;SDS011;40065;49.894;10.358;2023-06-14T06:22:20;6.43;;;3.95;;
54157;SDS011;40065;49.894;10.358;2023-06-14T06:27:21;7.75;;;4.60;;
54157;SDS011;40065;49.894;10.358;2023-06-14T06:32:23;8.65;;;4.47;;
54157;SDS011;40065;49.894;10.358;2023-06-14T06:37:26;6.75;;;4.50;;
54157;SDS011;40065;49.894;10.358;2023-06-14T06:42:28;7.47;;;4.43;;
54157;SDS011;40065;49.894;10.358;2023-06-14T06:47:32;6.45;;;4.57;;
54157;SDS011;40065;49.894;10.358;2023-06-14T06:52:34;5.78;;;4.28;;
54157;SDS011;40065;49.894;10.358;2023-06-14T06:57:37;5.90;;;4.18;;
54157;SDS011;40065;49.894;10.358;2023-06-14T07:02:38;7.80;;;4.25;;
54157;SDS011;40065;49.894;10.358;2023-06-14T07:07:40;8.27;;;4.53;;
54157;SDS011;40065;49.894;10.358;2023-06-14T07:12:42;7.22;;;4.40;;
54157;SDS011;40065;49.894;10.358;2023-06-14T07:17:44;5.60;;;4.35;;
54157;SDS011;40065;49.894;10.358;2023-06-14T07:22:46;7.15;;;4.05;;
54157;SDS011;40065;49.894;10.358;2023-06-14T07:27:48;8.85;;;4.15;;
54157;SDS011;40065;49.894;10.358;2023-06-14T07:32:50;5.57;;;3.58;;
54157;SDS011;40065;49.894;10.358;2023-06-14T07:37:56;7.35;;;3.95;;
54157;SDS011;40065;49.894;10.358;2023-06-14T07:42:57;6.05;;;3.70;;
54157;SDS011;40065;49.894;10.358;2023-06-14T07:47:59;6.15;;;3.60;;
54157;SDS011;40065;49.894;10.358;2023-06-14T07:53:01;8.15;;;3.28;;
54157;SDS011;40065;49.894;10.358;2023-06-14T07:58:03;7.82;;;3.45;;
54157;SDS011;40065;49.894;10.358;2023-06-14T08:03:05;5.95;;;3.30;;
54157;SDS011;40065;49.894;10.358;2023-06-14T08:08:07;5.28;;;3.40;;
54157;SDS011;40065;49.894;10.358;2023-06-14T08:13:09;8.98;;;3.08;;
54157;SDS011;40065;49.894;10.358;2023-06-14T08:18:12;5.53;;;2.83;;
54157;SDS011;40065;49.894;10.358;2023-06-14T08:23:14;3.78;;;2.75;;
54157;SDS011;40065;49.894;10.358;2023-06-14T08:28:17;5.78;;;3.10;;
54157;SDS011;40065;49.894;10.358;2023-06-14T08:33:23;4.90;;;2.80;;
54157;SDS011;40065;49.894;10.358;2023-06-14T08:38:25;6.45;;;2.80;;
54157;SDS011;40065;49.894;10.358;2023-06-14T08:43:27;7.85;;;2.92;;
54157;SDS011;40065;49.894;10.358;2023-06-14T08:48:29;7.40;;;3.25;;
54157;SDS011;40065;49.894;10.358;2023-06-14T08:53:34;4.45;;;3.00;;
54157;SDS011;40065;49.894;10.358;2023-06-14T08:58:43;5.32;;;2.78;;
54157;SDS011;40065;49.894;10.358;2023-06-14T09:03:46;8.10;;;2.95;;
54157;SDS011;40065;49.894;10.358;2023-06-14T09:08:49;3.85;;;2.88;;
54157;SDS011;40065;49.894;10.358;2023-06-14T09:13:51;5.68;;;2.97;;
54157;SDS011;40065;49.894;10.358;2023-06-14T09:18:54;4.25;;;2.70;;
54157;SDS011;40065;49.894;10.358;2023-06-14T09:23:58;6.32;;;3.00;;
54157;SDS011;40065;49.894;10.358;2023-06-14T09:29:04;5.60;;;2.55;;
54157;SDS011;40065;49.894;10.358;2023-06-14T09:34:07;8.63;;;2.85;;
54157;SDS011;40065;49.894;10.358;2023-06-14T09:39:10;6.03;;;2.70;;
54157;SDS011;40065;49.894;10.358;2023-06-14T09:44:12;5.65;;;3.00;;
54157;SDS011;40065;49.894;10.358;2023-06-14T09:49:21;6.43;;;2.58;;
54157;SDS011;40065;49.894;10.358;2023-06-14T09:54:23;3.97;;;2.50;;
54157;SDS011;40065;49.894;10.358;2023-06-14T09:59:27;4.03;;;2.40;;
54157;SDS011;40065;49.894;10.358;2023-06-14T10:04:33;5.57;;;2.58;;
54157;SDS011;40065;49.894;10.358;2023-06-14T10:09:36;3.80;;;2.28;;
54157;SDS011;40065;49.894;10.358;2023-06-14T10:14:38;3.85;;;2.78;;
54157;SDS011;40065;49.894;10.358;2023-06-14T10:19:48;5.30;;;2.40;;
54157;SDS011;40065;49.894;10.358;2023-06-14T10:24:56;3.25;;;2.10;;
54157;SDS011;40065;49.894;10.358;2023-06-14T10:35:05;4.75;;;2.17;;
54157;SDS011;40065;49.894;10.358;2023-06-14T10:40:08;3.05;;;2.08;;
54157;SDS011;40065;49.894;10.358;2023-06-14T10:45:30;5.13;;;2.13;;
54157;SDS011;40065;49.894;10.358;2023-06-14T10:50:32;3.00;;;2.10;;
54157;SDS011;40065;49.894;10.358;2023-06-14T10:55:35;3.35;;;2.03;;
54157;SDS011;40065;49.894;10.358;2023-06-14T11:00:37;2.97;;;2.25;;
54157;SDS011;40065;49.894;10.358;2023-06-14T11:11:01;5.13;;;2.25;;
54157;SDS011;40065;49.894;10.358;2023-06-14T11:16:14;5.57;;;2.10;;
54157;SDS011;40065;49.894;10.358;2023-06-14T11:21:17;5.20;;;2.30;;
54157;SDS011;40065;49.894;10.358;2023-06-14T11:26:29;3.33;;;2.30;;
54157;SDS011;40065;49.894;10.358;2023-06-14T11:31:32;4.15;;;2.40;;
54157;SDS011;40065;49.894;10.358;2023-06-14T11:36:34;6.65;;;2.53;;
54157;SDS011;40065;49.894;10.358;2023-06-14T11:41:38;3.43;;;2.30;;
54157;SDS011;40065;49.894;10.358;2023-06-14T11:46:41;4.97;;;2.15;;
54157;SDS011;40065;49.894;10.358;2023-06-14T11:51:43;3.95;;;2.10;;
54157;SDS011;40065;49.894;10.358;2023-06-14T11:56:45;4.20;;;2.40;;
54157;SDS011;40065;49.894;10.358;2023-06-14T12:01:48;2.67;;;2.00;;
54157;SDS011;40065;49.894;10.358;2023-06-14T12:06:49;3.83;;;2.10;;
54157;SDS011;40065;49.894;10.358;2023-06-14T12:12:00;3.92;;;1.88;;
54157;SDS011;40065;49.894;10.358;2023-06-14T12:17:06;3.67;;;2.20;;
54157;SDS011;40065;49.894;10.358;2023-06-14T12:22:09;2.55;;;1.95;;
54157;SDS011;40065;49.894;10.358;2023-06-14T12:27:12;5.15;;;1.98;;
54157;SDS011;40065;49.894;10.358;2023-06-14T12:32:16;3.65;;;2.10;;
54157;SDS011;40065;49.894;10.358;2023-06-14T12:37:19;3.53;;;2.22;;
54157;SDS011;40065;49.894;10.358;2023-06-14T12:42:21;5.07;;;2.03;;
54157;SDS011;40065;49.894;10.358;2023-06-14T12:47:22;4.63;;;1.85;;
54157;SDS011;40065;49.894;10.358;2023-06-14T12:52:24;4.78;;;2.05;;
54157;SDS011;40065;49.894;10.358;2023-06-14T12:57:26;3.53;;;2.25;;
54157;SDS011;40065;49.894;10.358;2023-06-14T13:02:28;4.82;;;1.85;;
54157;SDS011;40065;49.894;10.358;2023-06-14T13:07:30;3.75;;;2.13;;
54157;SDS011;40065;49.894;10.358;2023-06-14T13:12:32;3.30;;;1.90;;
54157;SDS011;40065;49.894;10.358;2023-06-14T13:17:34;3.13;;;1.83;;
54157;SDS011;40065;49.894;10.358;2023-06-14T13:22:40;3.63;;;2.00;;
54157;SDS011;40065;49.894;10.358;2023-06-14T13:27:42;7.20;;;2.30;;
54157;SDS011;40065;49.894;10.358;2023-06-14T13:32:43;5.32;;;2.28;;
54157;SDS011;40065;49.894;10.358;2023-06-14T13:37:49;2.92;;;1.73;;
54157;SDS011;40065;49.894;10.358;2023-06-14T13:42:51;3.27;;;1.70;;
54157;SDS011;40065;49.894;10.358;2023-06-14T13:47:53;2.83;;;1.80;;
54157;SDS011;40065;49.894;10.358;2023-06-14T13:52:56;2.10;;;1.70;;
54157;SDS011;40065;49.894;10.358;2023-06-14T13:57:58;3.00;;;1.80;;
54157;SDS011;40065;49.894;10.358;2023-06-14T14:03:00;3.17;;;2.15;;
54157;SDS011;40065;49.894;10.358;2023-06-14T14:08:01;5.00;;;1.83;;
54157;SDS011;40065;49.894;10.358;2023-06-14T14:13:05;4.93;;;2.00;;
54157;SDS011;40065;49.894;10.358;2023-06-14T14:18:07;3.03;;;2.00;;
54157;SDS011;40065;49.894;10.358;2023-06-14T14:23:09;2.35;;;1.73;;
54157;SDS011;40065;49.894;10.358;2023-06-14T14:28:11;3.42;;;1.70;;
54157;SDS011;40065;49.894;10.358;2023-06-14T14:33:13;2.87;;;1.90;;
54157;SDS011;40065;49.894;10.358;2023-06-14T14:38:18;5.47;;;1.95;;
54157;SDS011;40065;49.894;10.358;2023-06-14T14:43:20;4.22;;;1.83;;
54157;SDS011;40065;49.894;10.358;2023-06-14T14:48:22;3.45;;;1.95;;
54157;SDS011;40065;49.894;10.358;2023-06-14T14:53:23;3.88;;;1.77;;
54157;SDS011;40065;49.894;10.358;2023-06-14T14:58:25;4.20;;;1.63;;
54157;SDS011;40065;49.894;10.358;2023-06-14T15:03:28;5.37;;;1.90;;
54157;SDS011;40065;49.894;10.358;2023-06-14T15:08:30;5.82;;;1.83;;
54157;SDS011;40065;49.894;10.358;2023-06-14T15:13:32;3.67;;;1.88;;
54157;SDS011;40065;49.894;10.358;2023-06-14T15:18:34;2.72;;;1.80;;
54157;SDS011;40065;49.894;10.358;2023-06-14T15:23:35;5.07;;;1.92;;
54157;SDS011;40065;49.894;10.358;2023-06-14T15:28:37;3.63;;;1.70;;
54157;SDS011;40065;49.894;10.358;2023-06-14T15:33:39;3.90;;;1.85;;
54157;SDS011;40065;49.894;10.358;2023-06-14T15:38:41;3.97;;;2.00;;
54157;SDS011;40065;49.894;10.358;2023-06-14T15:43:43;3.67;;;1.88;;
54157;SDS011;40065;49.894;10.358;2023-06-14T15:48:45;5.95;;;2.17;;
54157;SDS011;40065;49.894;10.358;2023-06-14T15:53:47;3.63;;;1.83;;
54157;SDS011;40065;49.894;10.358;2023-06-14T15:58:48;2.72;;;1.70;;
54157;SDS011;40065;49.894;10.358;2023-06-14T16:03:53;5.03;;;1.98;;
54157;SDS011;40065;49.894;10.358;2023-06-14T16:08:54;2.67;;;1.88;;
54157;SDS011;40065;49.894;10.358;2023-06-14T16:13:56;4.55;;;1.90;;
54157;SDS011;40065;49.894;10.358;2023-06-14T16:18:58;2.70;;;1.77;;
54157;SDS011;40065;49.894;10.358;2023-06-14T16:24:00;2.85;;;2.00;;
54157;SDS011;40065;49.894;10.358;2023-06-14T16:29:02;2.97;;;1.83;;
54157;SDS011;40065;49.894;10.358;2023-06-14T16:34:04;4.07;;;2.20;;
54157;SDS011;40065;49.894;10.358;2023-06-14T16:39:09;2.60;;;1.80;;
54157;SDS011;40065;49.894;10.358;2023-06-14T16:44:13;5.28;;;1.92;;
54157;SDS011;40065;49.894;10.358;2023-06-14T16:49:15;4.03;;;2.03;;
54157;SDS011;40065;49.894;10.358;2023-06-14T16:54:17;3.30;;;2.10;;
54157;SDS011;40065;49.894;10.358;2023-06-14T16:59:19;3.78;;;1.70;;
54157;SDS011;40065;49.894;10.358;2023-06-14T17:04:21;3.53;;;2.08;;
54157;SDS011;40065;49.894;10.358;2023-06-14T17:09:23;3.33;;;2.00;;
54157;SDS011;40065;49.894;10.358;2023-06-14T17:14:25;3.00;;;1.88;;
54157;SDS011;40065;49.894;10.358;2023-06-14T17:19:27;3.90;;;2.33;;
54157;SDS011;40065;49.894;10.358;2023-06-14T17:24:29;4.25;;;2.30;;
54157;SDS011;40065;49.894;10.358;2023-06-14T17:29:31;4.03;;;2.05;;
54157;SDS011;40065;49.894;10.358;2023-06-14T17:34:32;4.57;;;2.38;;
54157;SDS011;40065;49.894;10.358;2023-06-14T17:39:34;4.38;;;2.20;;
54157;SDS011;40065;49.894;10.358;2023-06-14T17:44:37;5.68;;;2.15;;
54157;SDS011;40065;49.894;10.358;2023-06-14T17:49:39;2.70;;;1.80;;
54157;SDS011;40065;49.894;10.358;2023-06-14T17:54:41;4.32;;;2.10;;
54157;SDS011;40065;49.894;10.358;2023-06-14T17:59:43;3.88;;;1.98;;
54157;SDS011;40065;49.894;10.358;2023-06-14T18:04:44;3.13;;;2.03;;
54157;SDS011;40065;49.894;10.358;2023-06-14T18:09:46;5.32;;;2.20;;
54157;SDS011;40065;49.894;10.358;2023-06-14T18:14:48;3.17;;;1.88;;
54157;SDS011;40065;49.894;10.358;2023-06-14T18:19:50;4.95;;;2.13;;
54157;SDS011;40065;49.894;10.358;2023-06-14T18:24:52;3.28;;;2.05;;
54157;SDS011;40065;49.894;10.358;2023-06-14T18:29:53;3.15;;;1.95;;
54157;SDS011;40065;49.894;10.358;2023-06-14T18:34:56;4.35;;;1.90;;
54157;SDS011;40065;49.894;10.358;2023-06-14T18:39:58;3.33;;;2.22;;
54157;SDS011;40065;49.894;10.358;2023-06-14T18:45:00;3.25;;;2.30;;
54157;SDS011;40065;49.894;10.358;2023-06-14T18:50:02;4.85;;;2.30;;
54157;SDS011;40065;49.894;10.358;2023-06-14T18:55:04;6.50;;;2.50;;
54157;SDS011;40065;49.894;10.358;2023-06-14T19:00:07;6.15;;;2.70;;
54157;SDS011;40065;49.894;10.358;2023-06-14T19:05:10;3.97;;;2.50;;
54157;SDS011;40065;49.894;10.358;2023-06-14T19:10:12;4.35;;;2.25;;
54157;SDS011;40065;49.894;10.358;2023-06-14T19:15:14;4.90;;;2.50;;
54157;SDS011;40065;49.894;10.358;2023-06-14T19:20:16;4.03;;;2.50;;
54157;SDS011;40065;49.894;10.358;2023-06-14T19:25:18;3.90;;;2.47;;
54157;SDS011;40065;49.894;10.358;2023-06-14T19:30:20;4.28;;;2.45;;
54157;SDS011;40065;49.894;10.358;2023-06-14T19:35:22;3.30;;;2.40;;
54157;SDS011;40065;49.894;10.358;2023-06-14T19:40:24;4.55;;;2.78;;
54157;SDS011;40065;49.894;10.358;2023-06-14T19:45:26;4.25;;;2.20;;
54157;SDS011;40065;49.894;10.358;2023-06-14T19:50:28;5.40;;;2.63;;
54157;SDS011;40065;49.894;10.358;2023-06-14T19:55:30;4.57;;;2.40;;
54157;SDS011;40065;49.894;10.358;2023-06-14T20:00:32;3.47;;;2.13;;
54157;SDS011;40065;49.894;10.358;2023-06-14T20:05:34;3.97;;;2.60;;
54157;SDS011;40065;49.894;10.358;2023-06-14T20:10:36;3.85;;;2.20;;
54157;SDS011;40065;49.894;10.358;2023-06-14T20:15:38;2.97;;;2.53;;
54157;SDS011;40065;49.894;10.358;2023-06-14T20:20:40;4.10;;;2.28;;
54157;SDS011;40065;49.894;10.358;2023-06-14T20:25:43;3.03;;;2.33;;
54157;SDS011;40065;49.894;10.358;2023-06-14T20:30:44;5.32;;;2.28;;
54157;SDS011;40065;49.894;10.358;2023-06-14T20:35:46;4.97;;;2.50;;
54157;SDS011;40065;49.894;10.358;2023-06-14T20:40:48;4.63;;;2.60;;
54157;SDS011;40065;49.894;10.358;2023-06-14T20:45:50;3.30;;;2.08;;
54157;SDS011;40065;49.894;10.358;2023-06-14T20:50:56;4.63;;;2.40;;
54157;SDS011;40065;49.894;10.358;2023-06-14T20:55:58;6.97;;;2.35;;
54157;SDS011;40065;49.894;10.358;2023-06-14T21:00:59;4.45;;;2.40;;
54157;SDS011;40065;49.894;10.358;2023-06-14T21:06:02;5.88;;;2.50;;
54157;SDS011;40065;49.894;10.358;2023-06-14T21:11:07;4.22;;;2.38;;
54157;SDS011;40065;49.894;10.358;2023-06-14T21:16:09;2.95;;;2.28;;
54157;SDS011;40065;49.894;10.358;2023-06-14T21:21:11;5.68;;;2.70;;
54157;SDS011;40065;49.894;10.358;2023-06-14T21:26:13;4.13;;;2.25;;
54157;SDS011;40065;49.894;10.358;2023-06-14T21:31:17;5.43;;;2.17;;
54157;SDS011;40065;49.894;10.358;2023-06-14T21:36:20;2.40;;;1.80;;
54157;SDS011;40065;49.894;10.358;2023-06-14T21:41:21;2.88;;;2.10;;
54157;SDS011;40065;49.894;10.358;2023-06-14T21:46:23;2.67;;;1.80;;
54157;SDS011;40065;49.894;10.358;2023-06-14T21:51:25;2.70;;;2.20;;
54157;SDS011;40065;49.894;10.358;2023-06-14T21:56:27;2.80;;;1.98;;
54157;SDS011;40065;49.894;10.358;2023-06-14T22:01:29;3.53;;;2.00;;
54157;SDS011;40065;49.894;10.358;2023-06-14T22:06:31;2.55;;;1.77;;
54157;SDS011;40065;49.894;10.358;2023-06-14T22:11:32;2.47;;;1.65;;
54157;SDS011;40065;49.894;10.358;2023-06-14T22:16:35;2.83;;;1.77;;
54157;SDS011;40065;49.894;10.358;2023-06-14T22:21:38;3.13;;;2.13;;
54157;SDS011;40065;49.894;10.358;2023-06-14T22:26:41;3.67;;;2.15;;
54157;SDS011;40065;49.894;10.358;2023-06-14T22:31:50;3.63;;;2.17;;
54157;SDS011;40065;49.894;10.358;2023-06-14T22:36:52;2.58;;;1.88;;
54157;SDS011;40065;49.894;10.358;2023-06-14T22:41:55;3.33;;;2.20;;
54157;SDS011;40065;49.894;10.358;2023-06-14T22:46:57;4.85;;;2.20;;
54157;SDS011;40065;49.894;10.358;2023-06-14T22:52:01;3.30;;;2.00;;
54157;SDS011;40065;49.894;10.358;2023-06-14T22:57:06;3.53;;;2.08;;
54157;SDS011;40065;49.894;10.358;2023-06-14T23:02:09;3.05;;;2.10;;
54157;SDS011;40065;49.894;10.358;2023-06-14T23:12:15;2.80;;;2.00;;
54157;SDS011;40065;49.894;10.358;2023-06-14T23:17:18;4.18;;;2.30;;
54157;SDS011;40065;49.894;10.358;2023-06-14T23:22:20;4.63;;;2.58;;
54157;SDS011;40065;49.894;10.358;2023-06-14T23:27:23;3.80;;;2.97;;
54157;SDS011;40065;49.894;10.358;2023-06-14T23:32:25;3.38;;;2.30;;
54157;SDS011;40065;49.894;10.358;2023-06-14T23:37:30;4.45;;;2.50;;
54157;SDS011;40065;49.894;10.358;2023-06-14T23:42:32;4.28;;;2.83;;
54157;SDS011;40065;49.894;10.358;2023-06-14T23:47:34;3.83;;;2.55;;
54157;SDS011;40065;49.894;10.358;2023-06-14T23:52:36;3.35;;;2.50;;
54157;SDS011;40065;49.894;10.358;2023-06-14T23:57:39;3.75;;;2.88;;
